sensor_id;sensor_type;location;lat;lon;timestamp;temperature;humidity
64634;DHT22;51043;52.406;9.690;2023-05-07T00:00:38;10.20;99.90
64634;DHT22;51043;52.406;9.690;2023-05-07T00:03:07;10.20;99.90
64634;DHT22;51043;52.406;9.690;2023-05-07T00:05:35;10.20;99.90
64634;DHT22;51043;52.406;9.690;2023-05-07T00:08:07;10.10;99.90
64634;DHT22;51043;52.406;9.690;2023-05-07T00:10:35;10.20;99.90
64634;DHT22;51043;52.406;9.690;2023-05-07T00:13:09;10.20;99.90
64634;DHT22;51043;52.406;9.690;2023-05-07T00:15:38;10.20;99.90
64634;DHT22;51043;52.406;9.690;2023-05-07T00:18:08;10.10;99.90
64634;DHT22;51043;52.406;9.690;2023-05-07T00:20:39;10.10;99.90
64634;DHT22;51043;52.406;9.690;2023-05-07T00:23:09;10.10;99.90
64634;DHT22;51043;52.406;9.690;2023-05-07T00:25:40;10.10;99.90
64634;DHT22;51043;52.406;9.690;2023-05-07T00:28:10;10.10;99.90
64634;DHT22;51043;52.406;9.690;2023-05-07T00:30:38;10.10;99.90
64634;DHT22;51043;52.406;9.690;2023-05-07T00:33:07;10.10;99.90
64634;DHT22;51043;52.406;9.690;2023-05-07T00:35:35;10.10;99.90
64634;DHT22;51043;52.406;9.690;2023-05-07T00:38:05;10.10;99.90
64634;DHT22;51043;52.406;9.690;2023-05-07T00:40:33;10.10;99.90
64634;DHT22;51043;52.406;9.690;2023-05-07T00:43:01;10.10;99.90
64634;DHT22;51043;52.406;9.690;2023-05-07T00:45:33;10.00;99.90
64634;DHT22;51043;52.406;9.690;2023-05-07T00:48:02;10.00;99.90
64634;DHT22;51043;52.406;9.690;2023-05-07T00:50:32;9.90;99.90
64634;DHT22;51043;52.406;9.690;2023-05-07T00:53:00;9.90;99.90
64634;DHT22;51043;52.406;9.690;2023-05-07T00:55:29;9.80;99.90
64634;DHT22;51043;52.406;9.690;2023-05-07T00:57:59;9.90;99.90
64634;DHT22;51043;52.406;9.690;2023-05-07T01:00:28;9.90;99.90
64634;DHT22;51043;52.406;9.690;2023-05-07T01:02:57;9.90;99.90
64634;DHT22;51043;52.406;9.690;2023-05-07T01:05:26;10.00;99.90
64634;DHT22;51043;52.406;9.690;2023-05-07T01:07:58;9.90;99.90
64634;DHT22;51043;52.406;9.690;2023-05-07T01:10:27;9.90;99.90
64634;DHT22;51043;52.406;9.690;2023-05-07T01:12:58;9.90;99.90
64634;DHT22;51043;52.406;9.690;2023-05-07T01:15:27;9.80;99.90
64634;DHT22;51043;52.406;9.690;2023-05-07T01:17:57;9.80;99.90
64634;DHT22;51043;52.406;9.690;2023-05-07T01:20:31;9.70;99.90
64634;DHT22;51043;52.406;9.690;2023-05-07T01:23:01;9.80;99.90
64634;DHT22;51043;52.406;9.690;2023-05-07T01:25:30;9.80;99.90
64634;DHT22;51043;52.406;9.690;2023-05-07T01:28:00;9.80;99.90
64634;DHT22;51043;52.406;9.690;2023-05-07T01:30:33;9.90;99.90
64634;DHT22;51043;52.406;9.690;2023-05-07T01:33:08;9.90;99.90
64634;DHT22;51043;52.406;9.690;2023-05-07T01:35:45;9.90;99.90
64634;DHT22;51043;52.406;9.690;2023-05-07T01:38:16;9.90;99.90
64634;DHT22;51043;52.406;9.690;2023-05-07T01:40:45;9.80;99.90
64634;DHT22;51043;52.406;9.690;2023-05-07T01:43:14;9.80;99.90
64634;DHT22;51043;52.406;9.690;2023-05-07T01:45:42;9.80;99.90
64634;DHT22;51043;52.406;9.690;2023-05-07T01:48:12;9.80;99.90
64634;DHT22;51043;52.406;9.690;2023-05-07T01:50:42;9.80;99.90
64634;DHT22;51043;52.406;9.690;2023-05-07T01:53:11;9.80;99.90
64634;DHT22;51043;52.406;9.690;2023-05-07T01:55:44;9.80;99.90
64634;DHT22;51043;52.406;9.690;2023-05-07T01:58:12;9.80;99.90
64634;DHT22;51043;52.406;9.690;2023-05-07T02:00:41;9.80;99.90
64634;DHT22;51043;52.406;9.690;2023-05-07T02:03:09;9.80;99.90
64634;DHT22;51043;52.406;9.690;2023-05-07T02:05:44;9.80;99.90
64634;DHT22;51043;52.406;9.690;2023-05-07T02:08:28;9.80;99.90
64634;DHT22;51043;52.406;9.690;2023-05-07T02:10:58;9.80;99.90
64634;DHT22;51043;52.406;9.690;2023-05-07T02:13:28;9.80;99.90
64634;DHT22;51043;52.406;9.690;2023-05-07T02:15:57;9.80;99.90
64634;DHT22;51043;52.406;9.690;2023-05-07T02:18:26;9.80;99.90
64634;DHT22;51043;52.406;9.690;2023-05-07T02:20:54;9.80;99.90
64634;DHT22;51043;52.406;9.690;2023-05-07T02:23:22;9.80;99.90
64634;DHT22;51043;52.406;9.690;2023-05-07T02:25:51;9.80;99.90
64634;DHT22;51043;52.406;9.690;2023-05-07T02:28:20;9.70;99.90
64634;DHT22;51043;52.406;9.690;2023-05-07T02:30:56;9.90;99.90
64634;DHT22;51043;52.406;9.690;2023-05-07T02:33:25;9.90;99.90
64634;DHT22;51043;52.406;9.690;2023-05-07T02:35:53;9.90;99.90
64634;DHT22;51043;52.406;9.690;2023-05-07T02:38:21;9.90;99.90
64634;DHT22;51043;52.406;9.690;2023-05-07T02:40:50;9.90;99.90
64634;DHT22;51043;52.406;9.690;2023-05-07T02:43:19;9.90;99.90
64634;DHT22;51043;52.406;9.690;2023-05-07T02:45:48;9.80;99.90
64634;DHT22;51043;52.406;9.690;2023-05-07T02:48:16;9.80;99.90
64634;DHT22;51043;52.406;9.690;2023-05-07T02:50:44;9.70;99.90
64634;DHT22;51043;52.406;9.690;2023-05-07T02:53:14;9.90;99.90
64634;DHT22;51043;52.406;9.690;2023-05-07T02:55:42;9.90;99.90
64634;DHT22;51043;52.406;9.690;2023-05-07T02:58:10;9.80;99.90
64634;DHT22;51043;52.406;9.690;2023-05-07T03:00:42;9.80;99.90
64634;DHT22;51043;52.406;9.690;2023-05-07T03:03:20;9.80;99.90
64634;DHT22;51043;52.406;9.690;2023-05-07T03:05:48;9.80;99.90
64634;DHT22;51043;52.406;9.690;2023-05-07T03:08:17;9.80;99.90
64634;DHT22;51043;52.406;9.690;2023-05-07T03:10:45;9.80;99.90
64634;DHT22;51043;52.406;9.690;2023-05-07T03:13:16;9.80;99.90
64634;DHT22;51043;52.406;9.690;2023-05-07T03:15:45;9.80;99.90
64634;DHT22;51043;52.406;9.690;2023-05-07T03:18:14;9.80;99.90
64634;DHT22;51043;52.406;9.690;2023-05-07T03:20:42;9.70;99.90
64634;DHT22;51043;52.406;9.690;2023-05-07T03:23:10;9.70;99.90
64634;DHT22;51043;52.406;9.690;2023-05-07T03:25:38;9.70;99.90
64634;DHT22;51043;52.406;9.690;2023-05-07T03:28:09;9.70;99.90
64634;DHT22;51043;52.406;9.690;2023-05-07T03:30:43;9.80;99.90
64634;DHT22;51043;52.406;9.690;2023-05-07T03:33:13;9.80;99.90
64634;DHT22;51043;52.406;9.690;2023-05-07T03:35:41;9.80;99.90
64634;DHT22;51043;52.406;9.690;2023-05-07T03:38:10;9.80;99.90
64634;DHT22;51043;52.406;9.690;2023-05-07T03:40:38;9.70;99.90
64634;DHT22;51043;52.406;9.690;2023-05-07T03:43:07;9.80;99.90
64634;DHT22;51043;52.406;9.690;2023-05-07T03:45:42;9.70;99.90
64634;DHT22;51043;52.406;9.690;2023-05-07T03:48:20;9.80;99.90
64634;DHT22;51043;52.406;9.690;2023-05-07T03:50:50;9.60;99.90
64634;DHT22;51043;52.406;9.690;2023-05-07T03:53:19;9.70;99.90
64634;DHT22;51043;52.406;9.690;2023-05-07T03:55:47;9.60;99.90
64634;DHT22;51043;52.406;9.690;2023-05-07T03:58:17;9.60;99.90
64634;DHT22;51043;52.406;9.690;2023-05-07T04:00:45;9.60;99.90
64634;DHT22;51043;52.406;9.690;2023-05-07T04:03:22;9.50;99.90
64634;DHT22;51043;52.406;9.690;2023-05-07T04:05:51;9.60;99.90
64634;DHT22;51043;52.406;9.690;2023-05-07T04:08:20;9.60;99.90
64634;DHT22;51043;52.406;9.690;2023-05-07T04:10:55;9.50;99.90
64634;DHT22;51043;52.406;9.690;2023-05-07T04:13:25;9.60;99.90
64634;DHT22;51043;52.406;9.690;2023-05-07T04:15:55;9.50;99.90
64634;DHT22;51043;52.406;9.690;2023-05-07T04:18:25;9.50;99.90
64634;DHT22;51043;52.406;9.690;2023-05-07T04:20:53;9.50;99.90
64634;DHT22;51043;52.406;9.690;2023-05-07T04:23:21;9.60;99.90
64634;DHT22;51043;52.406;9.690;2023-05-07T04:25:50;9.60;99.90
64634;DHT22;51043;52.406;9.690;2023-05-07T04:28:33;9.60;99.90
64634;DHT22;51043;52.406;9.690;2023-05-07T04:31:02;9.60;99.90
64634;DHT22;51043;52.406;9.690;2023-05-07T04:33:34;9.70;99.90
64634;DHT22;51043;52.406;9.690;2023-05-07T04:36:04;9.70;99.90
64634;DHT22;51043;52.406;9.690;2023-05-07T04:38:45;9.70;99.90
64634;DHT22;51043;52.406;9.690;2023-05-07T04:41:14;9.70;99.90
64634;DHT22;51043;52.406;9.690;2023-05-07T04:43:42;9.70;99.90
64634;DHT22;51043;52.406;9.690;2023-05-07T04:46:12;9.70;99.90
64634;DHT22;51043;52.406;9.690;2023-05-07T04:48:43;9.70;99.90
64634;DHT22;51043;52.406;9.690;2023-05-07T04:51:11;9.80;99.90
64634;DHT22;51043;52.406;9.690;2023-05-07T04:53:39;9.70;99.90
64634;DHT22;51043;52.406;9.690;2023-05-07T04:56:10;9.80;99.90
64634;DHT22;51043;52.406;9.690;2023-05-07T04:58:44;9.70;99.90
64634;DHT22;51043;52.406;9.690;2023-05-07T05:01:14;9.80;99.90
64634;DHT22;51043;52.406;9.690;2023-05-07T05:03:47;9.80;99.90
64634;DHT22;51043;52.406;9.690;2023-05-07T05:06:15;9.70;99.90
64634;DHT22;51043;52.406;9.690;2023-05-07T05:08:43;9.70;99.90
64634;DHT22;51043;52.406;9.690;2023-05-07T05:11:12;9.70;99.90
64634;DHT22;51043;52.406;9.690;2023-05-07T05:13:40;9.70;99.90
64634;DHT22;51043;52.406;9.690;2023-05-07T05:16:16;9.70;99.90
64634;DHT22;51043;52.406;9.690;2023-05-07T05:18:44;9.80;99.90
64634;DHT22;51043;52.406;9.690;2023-05-07T05:21:16;9.70;99.90
64634;DHT22;51043;52.406;9.690;2023-05-07T05:23:47;9.80;99.90
64634;DHT22;51043;52.406;9.690;2023-05-07T05:26:19;9.80;99.90
64634;DHT22;51043;52.406;9.690;2023-05-07T05:28:48;9.80;99.90
64634;DHT22;51043;52.406;9.690;2023-05-07T05:31:22;9.80;99.90
64634;DHT22;51043;52.406;9.690;2023-05-07T05:33:51;9.90;99.90
64634;DHT22;51043;52.406;9.690;2023-05-07T05:36:20;9.80;99.90
64634;DHT22;51043;52.406;9.690;2023-05-07T05:38:50;9.90;99.90
64634;DHT22;51043;52.406;9.690;2023-05-07T05:41:19;9.90;99.90
64634;DHT22;51043;52.406;9.690;2023-05-07T05:43:48;9.90;99.90
64634;DHT22;51043;52.406;9.690;2023-05-07T05:46:17;10.00;99.90
64634;DHT22;51043;52.406;9.690;2023-05-07T05:48:51;9.90;99.90
64634;DHT22;51043;52.406;9.690;2023-05-07T05:51:21;9.80;99.90
64634;DHT22;51043;52.406;9.690;2023-05-07T05:53:49;9.80;99.90
64634;DHT22;51043;52.406;9.690;2023-05-07T05:56:19;9.80;99.90
64634;DHT22;51043;52.406;9.690;2023-05-07T05:58:47;10.00;99.90
64634;DHT22;51043;52.406;9.690;2023-05-07T06:01:17;10.00;99.90
64634;DHT22;51043;52.406;9.690;2023-05-07T06:03:46;10.00;99.90
64634;DHT22;51043;52.406;9.690;2023-05-07T06:06:15;10.00;99.90
64634;DHT22;51043;52.406;9.690;2023-05-07T06:08:46;10.00;99.90
64634;DHT22;51043;52.406;9.690;2023-05-07T06:11:19;10.00;99.90
64634;DHT22;51043;52.406;9.690;2023-05-07T06:13:48;9.90;99.90
64634;DHT22;51043;52.406;9.690;2023-05-07T06:16:15;9.90;99.90
64634;DHT22;51043;52.406;9.690;2023-05-07T06:18:44;10.00;99.90
64634;DHT22;51043;52.406;9.690;2023-05-07T06:21:14;9.90;99.90
64634;DHT22;51043;52.406;9.690;2023-05-07T06:23:42;10.00;99.90
64634;DHT22;51043;52.406;9.690;2023-05-07T06:26:12;10.10;99.90
64634;DHT22;51043;52.406;9.690;2023-05-07T06:28:43;10.10;99.90
64634;DHT22;51043;52.406;9.690;2023-05-07T06:31:14;10.20;99.90
64634;DHT22;51043;52.406;9.690;2023-05-07T06:33:46;10.30;99.90
64634;DHT22;51043;52.406;9.690;2023-05-07T06:36:15;10.40;99.90
64634;DHT22;51043;52.406;9.690;2023-05-07T06:38:54;10.40;99.90
64634;DHT22;51043;52.406;9.690;2023-05-07T06:41:24;10.50;99.90
64634;DHT22;51043;52.406;9.690;2023-05-07T06:43:54;10.60;99.90
64634;DHT22;51043;52.406;9.690;2023-05-07T06:46:45;10.80;99.90
64634;DHT22;51043;52.406;9.690;2023-05-07T06:49:17;10.80;99.90
64634;DHT22;51043;52.406;9.690;2023-05-07T06:51:47;10.80;99.90
64634;DHT22;51043;52.406;9.690;2023-05-07T06:54:15;10.80;99.90
64634;DHT22;51043;52.406;9.690;2023-05-07T06:56:45;10.90;99.90
64634;DHT22;51043;52.406;9.690;2023-05-07T06:59:13;10.90;99.90
64634;DHT22;51043;52.406;9.690;2023-05-07T07:01:44;11.00;99.90
64634;DHT22;51043;52.406;9.690;2023-05-07T07:04:12;11.10;99.90
64634;DHT22;51043;52.406;9.690;2023-05-07T07:06:46;11.00;99.90
64634;DHT22;51043;52.406;9.690;2023-05-07T07:09:14;11.00;99.90
64634;DHT22;51043;52.406;9.690;2023-05-07T07:11:46;11.10;99.90
64634;DHT22;51043;52.406;9.690;2023-05-07T07:14:14;11.10;99.90
64634;DHT22;51043;52.406;9.690;2023-05-07T07:16:47;11.20;99.90
64634;DHT22;51043;52.406;9.690;2023-05-07T07:19:17;11.40;99.90
64634;DHT22;51043;52.406;9.690;2023-05-07T07:21:49;11.50;99.90
64634;DHT22;51043;52.406;9.690;2023-05-07T07:24:17;11.50;99.90
64634;DHT22;51043;52.406;9.690;2023-05-07T07:26:52;11.50;99.90
64634;DHT22;51043;52.406;9.690;2023-05-07T07:29:23;11.60;99.90
64634;DHT22;51043;52.406;9.690;2023-05-07T07:31:53;11.70;99.90
64634;DHT22;51043;52.406;9.690;2023-05-07T07:34:21;11.80;99.90
64634;DHT22;51043;52.406;9.690;2023-05-07T07:36:50;11.80;99.90
64634;DHT22;51043;52.406;9.690;2023-05-07T07:39:18;11.80;99.90
64634;DHT22;51043;52.406;9.690;2023-05-07T07:41:49;12.10;99.90
64634;DHT22;51043;52.406;9.690;2023-05-07T07:44:21;12.20;99.90
64634;DHT22;51043;52.406;9.690;2023-05-07T07:46:54;12.40;99.90
64634;DHT22;51043;52.406;9.690;2023-05-07T07:49:24;12.60;99.90
64634;DHT22;51043;52.406;9.690;2023-05-07T07:51:53;12.90;99.90
64634;DHT22;51043;52.406;9.690;2023-05-07T07:54:23;13.00;99.90
64634;DHT22;51043;52.406;9.690;2023-05-07T07:56:52;13.00;99.90
64634;DHT22;51043;52.406;9.690;2023-05-07T07:59:21;13.10;99.90
64634;DHT22;51043;52.406;9.690;2023-05-07T08:01:50;13.20;99.90
64634;DHT22;51043;52.406;9.690;2023-05-07T08:04:20;13.50;99.90
64634;DHT22;51043;52.406;9.690;2023-05-07T08:06:48;13.80;99.90
64634;DHT22;51043;52.406;9.690;2023-05-07T08:09:16;14.10;99.90
64634;DHT22;51043;52.406;9.690;2023-05-07T08:11:47;14.10;99.90
64634;DHT22;51043;52.406;9.690;2023-05-07T08:14:15;13.70;99.90
64634;DHT22;51043;52.406;9.690;2023-05-07T08:16:47;13.40;99.90
64634;DHT22;51043;52.406;9.690;2023-05-07T08:19:15;13.40;99.90
64634;DHT22;51043;52.406;9.690;2023-05-07T08:21:45;13.20;99.90
64634;DHT22;51043;52.406;9.690;2023-05-07T08:24:15;13.00;99.90
64634;DHT22;51043;52.406;9.690;2023-05-07T08:26:46;13.00;99.90
64634;DHT22;51043;52.406;9.690;2023-05-07T08:29:14;13.00;99.90
64634;DHT22;51043;52.406;9.690;2023-05-07T08:31:43;13.10;99.90
64634;DHT22;51043;52.406;9.690;2023-05-07T08:34:13;13.40;99.90
64634;DHT22;51043;52.406;9.690;2023-05-07T08:36:45;13.30;99.90
64634;DHT22;51043;52.406;9.690;2023-05-07T08:39:17;13.50;99.90
64634;DHT22;51043;52.406;9.690;2023-05-07T08:41:48;13.50;99.90
64634;DHT22;51043;52.406;9.690;2023-05-07T08:44:22;13.60;99.90
64634;DHT22;51043;52.406;9.690;2023-05-07T08:46:56;13.90;99.90
64634;DHT22;51043;52.406;9.690;2023-05-07T08:49:27;14.20;99.90
64634;DHT22;51043;52.406;9.690;2023-05-07T08:51:56;14.30;99.90
64634;DHT22;51043;52.406;9.690;2023-05-07T08:54:25;14.30;99.90
64634;DHT22;51043;52.406;9.690;2023-05-07T08:56:54;14.30;99.90
64634;DHT22;51043;52.406;9.690;2023-05-07T08:59:22;14.20;99.90
64634;DHT22;51043;52.406;9.690;2023-05-07T09:01:51;13.90;99.90
64634;DHT22;51043;52.406;9.690;2023-05-07T09:04:20;13.60;99.90
64634;DHT22;51043;52.406;9.690;2023-05-07T09:06:49;13.60;99.90
64634;DHT22;51043;52.406;9.690;2023-05-07T09:09:21;13.30;99.90
64634;DHT22;51043;52.406;9.690;2023-05-07T09:11:56;13.10;99.90
64634;DHT22;51043;52.406;9.690;2023-05-07T09:14:28;13.30;99.90
64634;DHT22;51043;52.406;9.690;2023-05-07T09:16:57;13.30;99.90
64634;DHT22;51043;52.406;9.690;2023-05-07T09:19:26;13.30;99.90
64634;DHT22;51043;52.406;9.690;2023-05-07T09:22:04;13.20;99.90
64634;DHT22;51043;52.406;9.690;2023-05-07T09:24:48;13.20;99.90
64634;DHT22;51043;52.406;9.690;2023-05-07T09:27:19;13.40;99.90
64634;DHT22;51043;52.406;9.690;2023-05-07T09:29:47;13.60;99.90
64634;DHT22;51043;52.406;9.690;2023-05-07T09:32:15;13.60;99.90
64634;DHT22;51043;52.406;9.690;2023-05-07T09:34:44;13.50;99.90
64634;DHT22;51043;52.406;9.690;2023-05-07T09:37:19;13.50;99.90
64634;DHT22;51043;52.406;9.690;2023-05-07T09:39:49;13.40;99.90
64634;DHT22;51043;52.406;9.690;2023-05-07T09:42:23;13.50;99.90
64634;DHT22;51043;52.406;9.690;2023-05-07T09:44:53;13.40;99.90
64634;DHT22;51043;52.406;9.690;2023-05-07T09:47:24;13.20;99.90
64634;DHT22;51043;52.406;9.690;2023-05-07T09:50:02;13.10;99.90
64634;DHT22;51043;52.406;9.690;2023-05-07T09:52:34;13.20;99.90
64634;DHT22;51043;52.406;9.690;2023-05-07T09:55:05;13.50;99.90
64634;DHT22;51043;52.406;9.690;2023-05-07T09:57:34;13.40;99.90
64634;DHT22;51043;52.406;9.690;2023-05-07T10:00:07;13.50;99.90
64634;DHT22;51043;52.406;9.690;2023-05-07T10:02:48;13.30;99.90
64634;DHT22;51043;52.406;9.690;2023-05-07T10:05:25;13.30;99.90
64634;DHT22;51043;52.406;9.690;2023-05-07T10:07:58;13.30;99.90
64634;DHT22;51043;52.406;9.690;2023-05-07T10:10:28;13.30;99.90
64634;DHT22;51043;52.406;9.690;2023-05-07T10:12:57;13.40;99.90
64634;DHT22;51043;52.406;9.690;2023-05-07T10:15:31;13.40;99.90
64634;DHT22;51043;52.406;9.690;2023-05-07T10:18:03;13.30;99.90
64634;DHT22;51043;52.406;9.690;2023-05-07T10:20:33;13.40;99.90
64634;DHT22;51043;52.406;9.690;2023-05-07T10:23:04;13.70;99.90
64634;DHT22;51043;52.406;9.690;2023-05-07T10:25:39;13.60;99.90
64634;DHT22;51043;52.406;9.690;2023-05-07T10:28:16;13.80;99.90
64634;DHT22;51043;52.406;9.690;2023-05-07T10:30:57;13.80;99.90
64634;DHT22;51043;52.406;9.690;2023-05-07T10:33:34;13.80;99.90
64634;DHT22;51043;52.406;9.690;2023-05-07T10:36:05;13.80;99.90
64634;DHT22;51043;52.406;9.690;2023-05-07T10:38:36;13.70;99.90
64634;DHT22;51043;52.406;9.690;2023-05-07T10:41:05;13.80;99.90
64634;DHT22;51043;52.406;9.690;2023-05-07T10:43:42;14.00;99.90
64634;DHT22;51043;52.406;9.690;2023-05-07T10:46:20;14.10;99.90
64634;DHT22;51043;52.406;9.690;2023-05-07T10:49:07;14.30;99.90
64634;DHT22;51043;52.406;9.690;2023-05-07T10:51:40;14.40;99.90
64634;DHT22;51043;52.406;9.690;2023-05-07T10:54:27;14.50;99.90
64634;DHT22;51043;52.406;9.690;2023-05-07T10:57:33;14.80;99.90
64634;DHT22;51043;52.406;9.690;2023-05-07T11:00:41;14.60;99.90
64634;DHT22;51043;52.406;9.690;2023-05-07T11:03:20;14.50;99.90
64634;DHT22;51043;52.406;9.690;2023-05-07T11:06:10;14.70;99.90
64634;DHT22;51043;52.406;9.690;2023-05-07T11:08:56;14.90;99.90
64634;DHT22;51043;52.406;9.690;2023-05-07T11:11:49;14.90;99.90
64634;DHT22;51043;52.406;9.690;2023-05-07T11:14:51;15.10;99.90
64634;DHT22;51043;52.406;9.690;2023-05-07T11:17:29;15.20;99.90
64634;DHT22;51043;52.406;9.690;2023-05-07T11:20:03;15.30;99.90
64634;DHT22;51043;52.406;9.690;2023-05-07T11:22:51;15.50;99.90
64634;DHT22;51043;52.406;9.690;2023-05-07T11:25:28;15.70;99.90
64634;DHT22;51043;52.406;9.690;2023-05-07T11:28:16;15.60;99.90
64634;DHT22;51043;52.406;9.690;2023-05-07T11:30:53;15.50;99.90
64634;DHT22;51043;52.406;9.690;2023-05-07T11:33:22;15.40;99.90
64634;DHT22;51043;52.406;9.690;2023-05-07T11:35:56;15.70;99.90
64634;DHT22;51043;52.406;9.690;2023-05-07T11:38:30;15.80;99.90
64634;DHT22;51043;52.406;9.690;2023-05-07T11:41:03;16.50;99.90
64634;DHT22;51043;52.406;9.690;2023-05-07T11:43:34;16.70;99.90
64634;DHT22;51043;52.406;9.690;2023-05-07T11:46:07;16.40;99.90
64634;DHT22;51043;52.406;9.690;2023-05-07T11:48:36;16.40;99.90
64634;DHT22;51043;52.406;9.690;2023-05-07T11:51:06;16.20;99.90
64634;DHT22;51043;52.406;9.690;2023-05-07T11:53:37;16.10;99.90
64634;DHT22;51043;52.406;9.690;2023-05-07T11:56:09;16.20;99.90
64634;DHT22;51043;52.406;9.690;2023-05-07T11:58:39;16.20;99.90
64634;DHT22;51043;52.406;9.690;2023-05-07T12:01:09;16.20;99.90
64634;DHT22;51043;52.406;9.690;2023-05-07T12:03:39;16.50;99.90
64634;DHT22;51043;52.406;9.690;2023-05-07T12:06:09;17.00;99.90
64634;DHT22;51043;52.406;9.690;2023-05-07T12:08:41;17.40;99.90
64634;DHT22;51043;52.406;9.690;2023-05-07T12:11:15;17.20;99.90
64634;DHT22;51043;52.406;9.690;2023-05-07T12:13:46;17.50;99.90
64634;DHT22;51043;52.406;9.690;2023-05-07T12:16:17;17.40;99.90
64634;DHT22;51043;52.406;9.690;2023-05-07T12:18:46;17.10;99.90
64634;DHT22;51043;52.406;9.690;2023-05-07T12:21:16;16.60;99.90
64634;DHT22;51043;52.406;9.690;2023-05-07T12:23:51;16.60;99.90
64634;DHT22;51043;52.406;9.690;2023-05-07T12:26:19;16.40;99.90
64634;DHT22;51043;52.406;9.690;2023-05-07T12:28:55;16.40;99.90
64634;DHT22;51043;52.406;9.690;2023-05-07T12:31:25;16.10;99.90
64634;DHT22;51043;52.406;9.690;2023-05-07T12:33:54;16.00;99.90
64634;DHT22;51043;52.406;9.690;2023-05-07T12:36:22;16.00;99.90
64634;DHT22;51043;52.406;9.690;2023-05-07T12:38:54;15.80;99.90
64634;DHT22;51043;52.406;9.690;2023-05-07T12:41:22;15.60;99.90
64634;DHT22;51043;52.406;9.690;2023-05-07T12:43:57;15.40;99.90
64634;DHT22;51043;52.406;9.690;2023-05-07T12:46:25;15.30;99.90
64634;DHT22;51043;52.406;9.690;2023-05-07T12:48:53;15.10;99.90
64634;DHT22;51043;52.406;9.690;2023-05-07T12:51:22;15.20;99.90
64634;DHT22;51043;52.406;9.690;2023-05-07T12:53:50;15.20;99.90
64634;DHT22;51043;52.406;9.690;2023-05-07T12:56:18;15.30;99.90
64634;DHT22;51043;52.406;9.690;2023-05-07T12:58:58;15.50;99.90
64634;DHT22;51043;52.406;9.690;2023-05-07T13:01:29;15.80;99.90
64634;DHT22;51043;52.406;9.690;2023-05-07T13:04:01;15.70;99.90
64634;DHT22;51043;52.406;9.690;2023-05-07T13:06:32;15.60;99.90
64634;DHT22;51043;52.406;9.690;2023-05-07T13:09:00;15.80;99.90
64634;DHT22;51043;52.406;9.690;2023-05-07T13:11:28;15.90;99.90
64634;DHT22;51043;52.406;9.690;2023-05-07T13:13:56;16.30;99.90
64634;DHT22;51043;52.406;9.690;2023-05-07T13:16:26;16.50;99.90
64634;DHT22;51043;52.406;9.690;2023-05-07T13:18:53;16.60;99.90
64634;DHT22;51043;52.406;9.690;2023-05-07T13:21:22;16.70;99.90
64634;DHT22;51043;52.406;9.690;2023-05-07T13:23:50;17.20;99.90
64634;DHT22;51043;52.406;9.690;2023-05-07T13:26:18;17.90;99.90
64634;DHT22;51043;52.406;9.690;2023-05-07T13:28:52;18.60;99.90
64634;DHT22;51043;52.406;9.690;2023-05-07T13:31:20;19.10;99.90
64634;DHT22;51043;52.406;9.690;2023-05-07T13:33:54;19.40;99.90
64634;DHT22;51043;52.406;9.690;2023-05-07T13:36:23;19.50;99.90
64634;DHT22;51043;52.406;9.690;2023-05-07T13:38:53;19.30;99.90
64634;DHT22;51043;52.406;9.690;2023-05-07T13:41:21;19.60;99.90
64634;DHT22;51043;52.406;9.690;2023-05-07T13:43:50;20.30;99.90
64634;DHT22;51043;52.406;9.690;2023-05-07T13:46:18;21.40;97.40
64634;DHT22;51043;52.406;9.690;2023-05-07T13:48:46;21.30;95.80
64634;DHT22;51043;52.406;9.690;2023-05-07T13:51:23;20.90;93.60
64634;DHT22;51043;52.406;9.690;2023-05-07T13:53:52;20.40;93.90
64634;DHT22;51043;52.406;9.690;2023-05-07T13:56:20;20.40;94.60
64634;DHT22;51043;52.406;9.690;2023-05-07T13:58:49;20.60;94.60
64634;DHT22;51043;52.406;9.690;2023-05-07T14:01:25;20.40;94.20
64634;DHT22;51043;52.406;9.690;2023-05-07T14:03:53;20.80;92.30
64634;DHT22;51043;52.406;9.690;2023-05-07T14:06:23;20.40;93.20
64634;DHT22;51043;52.406;9.690;2023-05-07T14:08:52;20.50;92.70
64634;DHT22;51043;52.406;9.690;2023-05-07T14:11:20;20.70;92.90
64634;DHT22;51043;52.406;9.690;2023-05-07T14:13:49;20.80;91.60
64634;DHT22;51043;52.406;9.690;2023-05-07T14:16:17;20.80;91.50
64634;DHT22;51043;52.406;9.690;2023-05-07T14:18:45;20.30;92.70
64634;DHT22;51043;52.406;9.690;2023-05-07T14:21:15;20.00;92.70
64634;DHT22;51043;52.406;9.690;2023-05-07T14:23:44;20.10;92.80
64634;DHT22;51043;52.406;9.690;2023-05-07T14:26:22;19.80;93.30
64634;DHT22;51043;52.406;9.690;2023-05-07T14:28:50;19.40;94.20
64634;DHT22;51043;52.406;9.690;2023-05-07T14:31:18;19.30;95.00
64634;DHT22;51043;52.406;9.690;2023-05-07T14:33:50;19.60;94.10
64634;DHT22;51043;52.406;9.690;2023-05-07T14:36:18;19.70;94.30
64634;DHT22;51043;52.406;9.690;2023-05-07T14:38:57;20.00;92.40
64634;DHT22;51043;52.406;9.690;2023-05-07T14:41:26;20.10;93.00
64634;DHT22;51043;52.406;9.690;2023-05-07T14:43:54;19.20;93.80
64634;DHT22;51043;52.406;9.690;2023-05-07T14:46:22;19.00;95.40
64634;DHT22;51043;52.406;9.690;2023-05-07T14:48:51;19.30;95.50
64634;DHT22;51043;52.406;9.690;2023-05-07T14:51:20;19.10;95.00
64634;DHT22;51043;52.406;9.690;2023-05-07T14:53:55;18.40;97.10
64634;DHT22;51043;52.406;9.690;2023-05-07T14:56:24;17.40;98.70
64634;DHT22;51043;52.406;9.690;2023-05-07T14:58:52;16.70;99.90
64634;DHT22;51043;52.406;9.690;2023-05-07T15:01:20;16.60;99.90
64634;DHT22;51043;52.406;9.690;2023-05-07T15:03:51;16.50;99.90
64634;DHT22;51043;52.406;9.690;2023-05-07T15:06:20;16.10;99.90
64634;DHT22;51043;52.406;9.690;2023-05-07T15:08:53;15.90;99.90
64634;DHT22;51043;52.406;9.690;2023-05-07T15:11:21;15.70;99.90
64634;DHT22;51043;52.406;9.690;2023-05-07T15:13:49;15.50;99.90
64634;DHT22;51043;52.406;9.690;2023-05-07T15:16:17;15.30;99.90
64634;DHT22;51043;52.406;9.690;2023-05-07T15:18:46;15.00;99.90
64634;DHT22;51043;52.406;9.690;2023-05-07T15:21:17;15.10;99.90
64634;DHT22;51043;52.406;9.690;2023-05-07T15:23:45;15.00;99.90
64634;DHT22;51043;52.406;9.690;2023-05-07T15:26:22;14.70;99.90
64634;DHT22;51043;52.406;9.690;2023-05-07T15:28:51;14.50;99.90
64634;DHT22;51043;52.406;9.690;2023-05-07T15:31:19;14.50;99.90
64634;DHT22;51043;52.406;9.690;2023-05-07T15:33:51;14.60;99.90
64634;DHT22;51043;52.406;9.690;2023-05-07T15:36:19;14.80;99.90
64634;DHT22;51043;52.406;9.690;2023-05-07T15:38:50;14.90;99.90
64634;DHT22;51043;52.406;9.690;2023-05-07T15:41:20;15.00;99.90
64634;DHT22;51043;52.406;9.690;2023-05-07T15:43:53;15.00;99.90
64634;DHT22;51043;52.406;9.690;2023-05-07T15:46:22;15.10;99.90
64634;DHT22;51043;52.406;9.690;2023-05-07T15:48:54;14.90;99.90
64634;DHT22;51043;52.406;9.690;2023-05-07T15:51:22;14.90;99.90
64634;DHT22;51043;52.406;9.690;2023-05-07T15:53:51;14.80;99.90
64634;DHT22;51043;52.406;9.690;2023-05-07T15:56:19;14.60;99.90
64634;DHT22;51043;52.406;9.690;2023-05-07T15:58:47;14.50;99.90